SBCFSBSV

Guest
Details From SBCF - Tancredo Neves
To SBSV - Salvador Bahia Deputado Luis Eduardo M
Flight Number -
Tags decoded
Created
Modified
Stats Distance 518 nm / 960 km
Max Altitude 0 ft / 0 m
Waypoints 2
Social Downloads 1
Likes 0
Share VATSIM

Download

Looking for another format? Having issues loading an existing format? Contact us
Advertisement - Login to hide

Notes

Requested: SBCF KOKSU UZ16 POSMU UZ36 MUMAS SBSV Unmatched points: KOKSU UZ16 POSMU UZ36 MUMAS

Route

SBCF SBSV

ID Type Via Altitude Latitude Longitude Leg Dist Tot Dist Heading (true) Name
O SBCF APT - 0 ft / 0 m -19.63376˚ -43.96885˚ - 0 nm - Tancredo Neves
O SBSV APT - 0 ft / 0 m -12.91099˚ -38.33104˚ 518 nm 518 nm 40° / 38° Salvador Bahia Deputado Luis Eduardo M

Altitude Profile

Advertisement - Login to hide

Weather


0- 5 10 15 20 25 30 35+ Temperature / ° C

Clouds and Precipitation
Forecast for 2018-05-22 00:00 UTC. Updated 3 hours ago

Ground ~20,000 ft ~40,000 ft Winds

SBCF

Details ICAO SBCF (CNF)
Name Tancredo Neves
Region Brazil
Timezone America/Sao_Paulo (UTC-3.0)
Stats Elevation 2,715 ft / 828 m (AMSL)
Location -19.633758° -43.968854°
Runways 1
Magnetic Variation 22.844° W

METAR

SBCF 220200Z 18002KT CAVOK 12/07 Q1021

Decode

TAF

TAF SBCF 212200Z 2200/2224 03005KT CAVOK TN07/2210Z TX23/2218Z PROB40 TEMPO 2206/2212 0900 FG NSC BECMG 2212/2214 01005KT RMK PDB

Decode

Departure Runways

ID Width Length Bearing (true) Bearing (mag) Surface Threshold Offset Overrun Length
16 148 ft / 45 m 9,872 ft / 3,009 m 138.97° 161.81° Asphalt 0 ft / 0 m 203 ft / 62 m
34 148 ft / 45 m 9,872 ft / 3,009 m 318.96° 341.80° Asphalt 0 ft / 0 m 203 ft / 62 m

SBSV

Details ICAO SBSV (SSA)
Name Salvador Bahia Deputado Luis Eduardo M
Region Brazil
Timezone America/Bahia (UTC-3.0)
Stats Elevation 64 ft / 20 m (AMSL)
Location -12.910994° -38.331043°
Runways 2
Magnetic Variation 23.445° W

METAR

SBSV 220200Z 12005KT 9999 FEW020 28/23 Q1015

Decode

TAF

TAF SBSV 212200Z 2200/2224 01005KT 9999 SCT020 TN24/2208Z TX30/2215Z BECMG 2211/2212 10009KT RMK PCN

Decode

Destination Runways

ID Width Length Bearing (true) Bearing (mag) Surface Threshold Offset Overrun Length
10 148 ft / 45 m 9,845 ft / 3,001 m 78.32° 101.77° Asphalt 0 ft / 0 m 205 ft / 62 m
17 148 ft / 45 m 5,014 ft / 1,528 m 144.04° 167.49° Asphalt 0 ft / 0 m 0 ft / 0 m
28 148 ft / 45 m 9,845 ft / 3,001 m 258.31° 281.76° Asphalt 0 ft / 0 m 205 ft / 62 m
35 148 ft / 45 m 5,014 ft / 1,528 m 324.04° 347.49° Asphalt 0 ft / 0 m 0 ft / 0 m

Approach Navaids

Runway Type Ident Frequency Range Bearing (true) Bearing (mag) Slope Elevation
10 Localiser ISV 109.30 MHz 18 nm / 33 km 78.41° 101.85° - 29 ft / 9 m (AMSL)
10 Glidescope ISV 109.30 MHz 10 nm / 19 km 78.32° 101.76° 2.88° 29 ft / 9 m (AMSL)

Popular Alternatives